sensor_id;sensor_type;location;lat;lon;timestamp;pressure;altitude;pressure_sealevel;temperature;humidity
64717;BME280;51146;50.274;19.000;2022-09-09T00:01:49;98123.63;;;15.74;68.25
64717;BME280;51146;50.274;19.000;2022-09-09T00:04:34;98126.53;;;15.72;68.46
64717;BME280;51146;50.274;19.000;2022-09-09T00:07:21;98117.78;;;15.69;68.43
64717;BME280;51146;50.274;19.000;2022-09-09T00:10:00;98115.56;;;15.64;68.37
64717;BME280;51146;50.274;19.000;2022-09-09T00:15:58;98125.91;;;15.52;68.67
64717;BME280;51146;50.274;19.000;2022-09-09T00:21:13;98123.28;;;15.43;68.83
64717;BME280;51146;50.274;19.000;2022-09-09T00:23:50;98111.34;;;15.35;68.73
64717;BME280;51146;50.274;19.000;2022-09-09T00:27:04;98111.81;;;15.31;68.87
64717;BME280;51146;50.274;19.000;2022-09-09T00:32:51;98118.41;;;15.20;69.31
64717;BME280;51146;50.274;19.000;2022-09-09T00:38:00;98119.34;;;15.11;69.35
64717;BME280;51146;50.274;19.000;2022-09-09T00:51:44;98118.75;;;14.99;69.54
64717;BME280;51146;50.274;19.000;2022-09-09T00:57:21;98118.88;;;14.89;69.98
64717;BME280;51146;50.274;19.000;2022-09-09T00:59:50;98129.91;;;14.88;70.00
64717;BME280;51146;50.274;19.000;2022-09-09T01:02:26;98134.63;;;14.86;69.92
64717;BME280;51146;50.274;19.000;2022-09-09T01:05:02;98133.94;;;14.84;69.94
64717;BME280;51146;50.274;19.000;2022-09-09T01:07:32;98142.25;;;14.82;70.28
64717;BME280;51146;50.274;19.000;2022-09-09T01:10:00;98143.25;;;14.81;70.23
64717;BME280;51146;50.274;19.000;2022-09-09T01:12:43;98143.25;;;14.81;70.35
64717;BME280;51146;50.274;19.000;2022-09-09T01:15:26;98150.69;;;14.79;70.29
64717;BME280;51146;50.274;19.000;2022-09-09T01:18:03;98152.56;;;14.78;70.55
64717;BME280;51146;50.274;19.000;2022-09-09T01:20:59;98147.25;;;14.77;70.62
64717;BME280;51146;50.274;19.000;2022-09-09T01:26:24;98156.28;;;14.77;70.79
64717;BME280;51146;50.274;19.000;2022-09-09T01:28:52;98159.84;;;14.78;70.91
64717;BME280;51146;50.274;19.000;2022-09-09T01:31:26;98153.41;;;14.79;70.91
64717;BME280;51146;50.274;19.000;2022-09-09T01:33:54;98155.00;;;14.82;71.15
64717;BME280;51146;50.274;19.000;2022-09-09T01:36:40;98158.06;;;14.87;70.95
64717;BME280;51146;50.274;19.000;2022-09-09T01:39:09;98161.69;;;14.87;70.67
64717;BME280;51146;50.274;19.000;2022-09-09T01:41:37;98159.81;;;14.88;70.38
64717;BME280;51146;50.274;19.000;2022-09-09T01:44:05;98161.69;;;14.87;70.48
64717;BME280;51146;50.274;19.000;2022-09-09T01:46:34;98160.81;;;14.87;70.26
64717;BME280;51146;50.274;19.000;2022-09-09T01:49:02;98173.41;;;14.88;70.24
64717;BME280;51146;50.274;19.000;2022-09-09T01:51:30;98172.56;;;14.87;70.33
64717;BME280;51146;50.274;19.000;2022-09-09T01:53:57;98167.41;;;14.84;70.34
64717;BME280;51146;50.274;19.000;2022-09-09T01:59:16;98170.97;;;14.85;70.42
64717;BME280;51146;50.274;19.000;2022-09-09T02:02:21;98170.28;;;14.83;70.35
64717;BME280;51146;50.274;19.000;2022-09-09T02:04:52;98170.59;;;14.79;70.17
64717;BME280;51146;50.274;19.000;2022-09-09T02:12:44;98168.88;;;14.78;70.29
64717;BME280;51146;50.274;19.000;2022-09-09T02:15:32;98176.03;;;14.79;70.13
64717;BME280;51146;50.274;19.000;2022-09-09T02:18:04;98176.91;;;14.80;70.08
64717;BME280;51146;50.274;19.000;2022-09-09T02:20:36;98181.47;;;14.79;69.99
64717;BME280;51146;50.274;19.000;2022-09-09T02:23:04;98178.88;;;14.78;70.18
64717;BME280;51146;50.274;19.000;2022-09-09T02:25:33;98182.75;;;14.75;70.06
64717;BME280;51146;50.274;19.000;2022-09-09T02:28:04;98182.94;;;14.74;70.19
64717;BME280;51146;50.274;19.000;2022-09-09T02:30:33;98194.81;;;14.73;70.16
64717;BME280;51146;50.274;19.000;2022-09-09T02:33:03;98192.41;;;14.70;69.96
64717;BME280;51146;50.274;19.000;2022-09-09T02:35:33;98200.72;;;14.68;70.11
64717;BME280;51146;50.274;19.000;2022-09-09T02:38:08;98192.00;;;14.65;70.08
64717;BME280;51146;50.274;19.000;2022-09-09T02:40:35;98202.19;;;14.63;70.21
64717;BME280;51146;50.274;19.000;2022-09-09T02:43:02;98196.22;;;14.59;70.18
64717;BME280;51146;50.274;19.000;2022-09-09T02:45:41;98194.66;;;14.56;70.00
64717;BME280;51146;50.274;19.000;2022-09-09T02:48:17;98198.53;;;14.54;69.96
64717;BME280;51146;50.274;19.000;2022-09-09T02:53:24;98214.59;;;14.47;69.93
64717;BME280;51146;50.274;19.000;2022-09-09T02:56:17;98201.47;;;14.42;70.12
64717;BME280;51146;50.274;19.000;2022-09-09T02:58:47;98212.94;;;14.36;70.09
64717;BME280;51146;50.274;19.000;2022-09-09T03:01:14;98209.66;;;14.33;70.00
64717;BME280;51146;50.274;19.000;2022-09-09T03:03:41;98211.00;;;14.29;70.11
64717;BME280;51146;50.274;19.000;2022-09-09T03:06:08;98208.59;;;14.26;70.19
64717;BME280;51146;50.274;19.000;2022-09-09T03:08:36;98215.16;;;14.23;70.09
64717;BME280;51146;50.274;19.000;2022-09-09T03:11:05;98214.59;;;14.19;70.13
64717;BME280;51146;50.274;19.000;2022-09-09T03:13:32;98218.50;;;14.17;70.22
64717;BME280;51146;50.274;19.000;2022-09-09T03:16:00;98221.34;;;14.15;70.23
64717;BME280;51146;50.274;19.000;2022-09-09T03:18:27;98232.53;;;14.12;70.16
64717;BME280;51146;50.274;19.000;2022-09-09T03:20:54;98226.41;;;14.10;70.53
64717;BME280;51146;50.274;19.000;2022-09-09T03:23:21;98217.69;;;14.07;70.38
64717;BME280;51146;50.274;19.000;2022-09-09T03:25:49;98223.41;;;14.03;70.44
64717;BME280;51146;50.274;19.000;2022-09-09T03:28:16;98221.72;;;14.02;70.47
64717;BME280;51146;50.274;19.000;2022-09-09T03:30:42;98224.28;;;14.04;70.40
64717;BME280;51146;50.274;19.000;2022-09-09T03:33:09;98228.72;;;14.05;70.46
64717;BME280;51146;50.274;19.000;2022-09-09T03:35:36;98234.13;;;14.05;70.50
64717;BME280;51146;50.274;19.000;2022-09-09T03:38:02;98234.28;;;14.03;70.33
64717;BME280;51146;50.274;19.000;2022-09-09T03:40:29;98238.03;;;14.02;70.13
64717;BME280;51146;50.274;19.000;2022-09-09T03:42:57;98240.88;;;14.01;70.55
64717;BME280;51146;50.274;19.000;2022-09-09T03:45:24;98246.31;;;14.01;70.32
64717;BME280;51146;50.274;19.000;2022-09-09T03:47:50;98245.59;;;13.99;70.39
64717;BME280;51146;50.274;19.000;2022-09-09T03:50:17;98245.44;;;14.00;70.48
64717;BME280;51146;50.274;19.000;2022-09-09T03:52:46;98254.59;;;13.99;70.33
64717;BME280;51146;50.274;19.000;2022-09-09T03:55:13;98251.88;;;13.99;70.39
64717;BME280;51146;50.274;19.000;2022-09-09T03:57:39;98245.59;;;13.99;70.38
64717;BME280;51146;50.274;19.000;2022-09-09T04:00:07;98247.31;;;14.00;70.25
64717;BME280;51146;50.274;19.000;2022-09-09T04:02:34;98247.44;;;13.98;70.11
64717;BME280;51146;50.274;19.000;2022-09-09T04:05:01;98251.19;;;13.97;70.23
64717;BME280;51146;50.274;19.000;2022-09-09T04:07:27;98247.63;;;13.97;70.03
64717;BME280;51146;50.274;19.000;2022-09-09T04:09:54;98245.19;;;13.94;70.08
64717;BME280;51146;50.274;19.000;2022-09-09T04:12:21;98247.19;;;13.92;70.12
64717;BME280;51146;50.274;19.000;2022-09-09T04:14:48;98244.47;;;13.92;70.00
64717;BME280;51146;50.274;19.000;2022-09-09T04:17:15;98247.34;;;13.90;69.77
64717;BME280;51146;50.274;19.000;2022-09-09T04:19:42;98251.22;;;13.88;69.71
64717;BME280;51146;50.274;19.000;2022-09-09T04:22:09;98249.78;;;13.83;69.98
64717;BME280;51146;50.274;19.000;2022-09-09T04:24:35;98256.47;;;13.79;69.88
64717;BME280;51146;50.274;19.000;2022-09-09T04:27:02;98253.94;;;13.78;69.86
64717;BME280;51146;50.274;19.000;2022-09-09T04:29:29;98254.22;;;13.75;69.93
64717;BME280;51146;50.274;19.000;2022-09-09T04:31:56;98255.25;;;13.74;70.02
64717;BME280;51146;50.274;19.000;2022-09-09T04:34:23;98251.38;;;13.76;70.03
64717;BME280;51146;50.274;19.000;2022-09-09T04:36:50;98257.50;;;13.78;70.04
64717;BME280;51146;50.274;19.000;2022-09-09T04:39:18;98252.91;;;13.79;69.94
64717;BME280;51146;50.274;19.000;2022-09-09T04:41:46;98258.06;;;13.82;70.25
64717;BME280;51146;50.274;19.000;2022-09-09T04:44:13;98250.78;;;13.82;69.93
64717;BME280;51146;50.274;19.000;2022-09-09T04:46:40;98258.81;;;13.84;69.97
64717;BME280;51146;50.274;19.000;2022-09-09T04:49:07;98262.38;;;13.85;69.91
64717;BME280;51146;50.274;19.000;2022-09-09T04:51:40;98264.78;;;13.88;70.02
64717;BME280;51146;50.274;19.000;2022-09-09T04:54:07;98261.19;;;13.87;69.94
64717;BME280;51146;50.274;19.000;2022-09-09T04:56:33;98266.81;;;13.86;70.05
64717;BME280;51146;50.274;19.000;2022-09-09T04:59:00;98274.22;;;13.83;69.87
64717;BME280;51146;50.274;19.000;2022-09-09T05:01:29;98272.47;;;13.82;69.93
64717;BME280;51146;50.274;19.000;2022-09-09T05:03:55;98271.50;;;13.83;69.75
64717;BME280;51146;50.274;19.000;2022-09-09T05:06:22;98277.81;;;13.84;69.64
64717;BME280;51146;50.274;19.000;2022-09-09T05:08:50;98272.94;;;13.88;69.94
64717;BME280;51146;50.274;19.000;2022-09-09T05:11:23;98276.50;;;13.88;69.66
64717;BME280;51146;50.274;19.000;2022-09-09T05:13:51;98277.50;;;13.87;69.90
64717;BME280;51146;50.274;19.000;2022-09-09T05:16:19;98277.50;;;13.87;69.74
64717;BME280;51146;50.274;19.000;2022-09-09T05:18:46;98281.66;;;13.91;69.83
64717;BME280;51146;50.274;19.000;2022-09-09T05:21:15;98282.34;;;13.93;69.90
64717;BME280;51146;50.274;19.000;2022-09-09T05:23:42;98287.59;;;13.95;69.85
64717;BME280;51146;50.274;19.000;2022-09-09T05:26:13;98291.06;;;13.97;69.83
64717;BME280;51146;50.274;19.000;2022-09-09T05:28:44;98293.47;;;14.00;69.72
64717;BME280;51146;50.274;19.000;2022-09-09T05:31:14;98290.47;;;14.03;69.79
64717;BME280;51146;50.274;19.000;2022-09-09T05:33:43;98292.72;;;14.08;69.73
64717;BME280;51146;50.274;19.000;2022-09-09T05:36:14;98297.00;;;14.10;69.65
64717;BME280;51146;50.274;19.000;2022-09-09T05:38:43;98293.13;;;14.13;69.54
64717;BME280;51146;50.274;19.000;2022-09-09T05:41:11;98289.97;;;14.17;69.49
64717;BME280;51146;50.274;19.000;2022-09-09T05:43:38;98296.78;;;14.21;69.51
64717;BME280;51146;50.274;19.000;2022-09-09T05:48:35;98298.06;;;14.27;69.35
64717;BME280;51146;50.274;19.000;2022-09-09T05:51:02;98292.03;;;14.33;69.12
64717;BME280;51146;50.274;19.000;2022-09-09T05:53:30;98294.16;;;14.39;69.25
64717;BME280;51146;50.274;19.000;2022-09-09T05:56:07;98296.41;;;14.44;69.06
64717;BME280;51146;50.274;19.000;2022-09-09T05:58:38;98292.22;;;14.50;69.03
64717;BME280;51146;50.274;19.000;2022-09-09T06:01:28;98297.94;;;14.56;68.86
64717;BME280;51146;50.274;19.000;2022-09-09T06:03:56;98292.88;;;14.61;68.80
64717;BME280;51146;50.274;19.000;2022-09-09T06:06:26;98293.13;;;14.68;68.65
64717;BME280;51146;50.274;19.000;2022-09-09T06:08:54;98299.25;;;14.80;68.56
64717;BME280;51146;50.274;19.000;2022-09-09T06:11:27;98295.47;;;14.91;68.52
64717;BME280;51146;50.274;19.000;2022-09-09T06:13:54;98296.38;;;14.99;68.57
64717;BME280;51146;50.274;19.000;2022-09-09T06:16:23;98300.56;;;15.12;68.21
64717;BME280;51146;50.274;19.000;2022-09-09T06:18:55;98300.50;;;15.22;68.14
64717;BME280;51146;50.274;19.000;2022-09-09T06:21:31;98299.72;;;15.29;67.57
64717;BME280;51146;50.274;19.000;2022-09-09T06:23:59;98294.34;;;15.37;67.23
64717;BME280;51146;50.274;19.000;2022-09-09T06:26:27;98299.16;;;15.44;67.29
64717;BME280;51146;50.274;19.000;2022-09-09T06:28:56;98299.41;;;15.50;66.97
64717;BME280;51146;50.274;19.000;2022-09-09T06:31:26;98304.50;;;15.53;66.76
64717;BME280;51146;50.274;19.000;2022-09-09T06:33:58;98302.16;;;15.58;66.41
64717;BME280;51146;50.274;19.000;2022-09-09T06:36:30;98301.22;;;15.68;66.21
64717;BME280;51146;50.274;19.000;2022-09-09T06:38:58;98299.44;;;15.76;66.28
64717;BME280;51146;50.274;19.000;2022-09-09T06:41:27;98301.34;;;15.84;65.94
64717;BME280;51146;50.274;19.000;2022-09-09T06:43:54;98308.88;;;15.90;65.74
64717;BME280;51146;50.274;19.000;2022-09-09T06:46:29;98294.09;;;15.93;65.48
64717;BME280;51146;50.274;19.000;2022-09-09T06:48:58;98300.09;;;15.96;65.36
64717;BME280;51146;50.274;19.000;2022-09-09T06:51:28;98300.28;;;16.03;65.31
64717;BME280;51146;50.274;19.000;2022-09-09T06:53:57;98295.22;;;16.08;64.65
64717;BME280;51146;50.274;19.000;2022-09-09T06:56:29;98299.16;;;16.14;65.12
64717;BME280;51146;50.274;19.000;2022-09-09T06:58:58;98300.38;;;16.20;64.74
64717;BME280;51146;50.274;19.000;2022-09-09T07:01:27;98296.84;;;16.27;64.42
64717;BME280;51146;50.274;19.000;2022-09-09T07:03:56;98294.00;;;16.37;63.69
64717;BME280;51146;50.274;19.000;2022-09-09T07:06:26;98298.97;;;16.50;63.71
64717;BME280;51146;50.274;19.000;2022-09-09T07:08:58;98293.09;;;16.63;63.52
64717;BME280;51146;50.274;19.000;2022-09-09T07:11:28;98296.34;;;16.74;62.71
64717;BME280;51146;50.274;19.000;2022-09-09T07:13:56;98300.28;;;16.80;61.48
64717;BME280;51146;50.274;19.000;2022-09-09T07:16:25;98292.78;;;16.82;61.11
64717;BME280;51146;50.274;19.000;2022-09-09T07:18:53;98292.63;;;16.84;60.68
64717;BME280;51146;50.274;19.000;2022-09-09T07:21:29;98287.88;;;16.86;60.50
64717;BME280;51146;50.274;19.000;2022-09-09T07:23:56;98292.31;;;16.87;60.25
64717;BME280;51146;50.274;19.000;2022-09-09T07:26:25;98293.69;;;16.91;60.24
64717;BME280;51146;50.274;19.000;2022-09-09T07:28:52;98286.03;;;17.03;59.94
64717;BME280;51146;50.274;19.000;2022-09-09T07:31:25;98279.22;;;17.15;59.85
64717;BME280;51146;50.274;19.000;2022-09-09T07:33:53;98281.09;;;17.23;59.91
64717;BME280;51146;50.274;19.000;2022-09-09T07:36:22;98287.25;;;17.33;59.41
64717;BME280;51146;50.274;19.000;2022-09-09T07:38:51;98277.19;;;17.42;58.56
64717;BME280;51146;50.274;19.000;2022-09-09T07:41:21;98284.22;;;17.52;58.18
64717;BME280;51146;50.274;19.000;2022-09-09T07:43:49;98279.75;;;17.68;58.02
64717;BME280;51146;50.274;19.000;2022-09-09T07:46:18;98281.78;;;17.90;57.40
64717;BME280;51146;50.274;19.000;2022-09-09T07:48:48;98285.84;;;18.03;56.93
64717;BME280;51146;50.274;19.000;2022-09-09T07:51:29;98297.78;;;18.26;56.75
64717;BME280;51146;50.274;19.000;2022-09-09T07:54:01;98298.50;;;18.60;56.29
64717;BME280;51146;50.274;19.000;2022-09-09T07:56:29;98292.78;;;19.09;54.99
64717;BME280;51146;50.274;19.000;2022-09-09T07:58:59;98306.63;;;19.77;54.38
64717;BME280;51146;50.274;19.000;2022-09-09T08:01:30;98308.25;;;20.54;53.81
64717;BME280;51146;50.274;19.000;2022-09-09T08:04:00;98303.81;;;21.40;52.82
64717;BME280;51146;50.274;19.000;2022-09-09T08:06:32;98303.25;;;22.23;51.82
64717;BME280;51146;50.274;19.000;2022-09-09T08:09:00;98302.34;;;22.92;49.96
64717;BME280;51146;50.274;19.000;2022-09-09T08:11:29;98307.84;;;23.74;48.74
64717;BME280;51146;50.274;19.000;2022-09-09T08:14:00;98302.69;;;24.71;46.28
64717;BME280;51146;50.274;19.000;2022-09-09T08:16:32;98304.00;;;25.45;43.16
64717;BME280;51146;50.274;19.000;2022-09-09T08:19:00;98300.72;;;25.94;41.77
64717;BME280;51146;50.274;19.000;2022-09-09T08:21:29;98294.38;;;26.37;40.18
64717;BME280;51146;50.274;19.000;2022-09-09T08:23:57;98302.59;;;26.62;39.17
64717;BME280;51146;50.274;19.000;2022-09-09T08:26:27;98302.38;;;26.63;38.83
64717;BME280;51146;50.274;19.000;2022-09-09T08:28:56;98306.00;;;26.64;37.84
64717;BME280;51146;50.274;19.000;2022-09-09T08:31:24;98293.47;;;26.61;37.00
64717;BME280;51146;50.274;19.000;2022-09-09T08:33:51;98300.91;;;26.79;36.84
64717;BME280;51146;50.274;19.000;2022-09-09T08:36:24;98302.53;;;27.05;36.75
64717;BME280;51146;50.274;19.000;2022-09-09T08:38:54;98294.97;;;27.13;35.44
64717;BME280;51146;50.274;19.000;2022-09-09T08:52:22;98309.88;;;26.13;35.67
64717;BME280;51146;50.274;19.000;2022-09-09T08:54:50;98302.16;;;26.21;36.30
64717;BME280;51146;50.274;19.000;2022-09-09T08:57:21;98303.91;;;26.41;36.44
64717;BME280;51146;50.274;19.000;2022-09-09T08:59:54;98294.06;;;26.63;36.09
64717;BME280;51146;50.274;19.000;2022-09-09T09:02:27;98300.31;;;26.96;34.70
64717;BME280;51146;50.274;19.000;2022-09-09T09:05:31;98303.25;;;27.31;33.81
64717;BME280;51146;50.274;19.000;2022-09-09T09:08:26;98302.50;;;27.24;33.76
64717;BME280;51146;50.274;19.000;2022-09-09T09:10:57;98305.91;;;27.07;33.93
64717;BME280;51146;50.274;19.000;2022-09-09T09:13:42;98311.09;;;26.67;33.74
64717;BME280;51146;50.274;19.000;2022-09-09T09:16:19;98304.97;;;26.58;33.75
64717;BME280;51146;50.274;19.000;2022-09-09T09:18:51;98301.47;;;26.51;34.30
64717;BME280;51146;50.274;19.000;2022-09-09T09:21:25;98301.53;;;26.44;34.36
64717;BME280;51146;50.274;19.000;2022-09-09T09:23:59;98299.16;;;26.48;33.87
64717;BME280;51146;50.274;19.000;2022-09-09T09:26:44;98297.91;;;26.44;33.87
64717;BME280;51146;50.274;19.000;2022-09-09T09:29:17;98303.06;;;26.40;34.12
64717;BME280;51146;50.274;19.000;2022-09-09T09:31:53;98301.00;;;26.73;34.38
64717;BME280;51146;50.274;19.000;2022-09-09T09:34:22;98300.59;;;27.06;33.73
64717;BME280;51146;50.274;19.000;2022-09-09T09:36:53;98303.91;;;27.15;32.99
64717;BME280;51146;50.274;19.000;2022-09-09T09:39:29;98294.06;;;27.00;33.03
64717;BME280;51146;50.274;19.000;2022-09-09T09:42:17;98290.53;;;26.75;32.66
64717;BME280;51146;50.274;19.000;2022-09-09T09:44:49;98287.91;;;26.61;32.37
64717;BME280;51146;50.274;19.000;2022-09-09T09:47:21;98293.91;;;26.77;32.83
64717;BME280;51146;50.274;19.000;2022-09-09T09:49:58;98291.84;;;27.39;33.07
64717;BME280;51146;50.274;19.000;2022-09-09T09:52:28;98280.34;;;27.66;31.46
64717;BME280;51146;50.274;19.000;2022-09-09T09:54:57;98293.28;;;27.84;31.21
64717;BME280;51146;50.274;19.000;2022-09-09T09:57:33;98303.47;;;28.02;31.08
64717;BME280;51146;50.274;19.000;2022-09-09T10:00:14;98300.59;;;28.20;30.86
64717;BME280;51146;50.274;19.000;2022-09-09T10:02:43;98306.84;;;28.16;30.09
64717;BME280;51146;50.274;19.000;2022-09-09T10:05:14;98305.59;;;27.76;30.88
64717;BME280;51146;50.274;19.000;2022-09-09T10:07:42;98301.47;;;27.67;31.22
64717;BME280;51146;50.274;19.000;2022-09-09T10:10:18;98294.56;;;27.70;31.06
64717;BME280;51146;50.274;19.000;2022-09-09T10:12:59;98292.75;;;27.63;31.06
64717;BME280;51146;50.274;19.000;2022-09-09T10:30:00;98317.63;;;28.24;30.89
64717;BME280;51146;50.274;19.000;2022-09-09T10:33:10;98321.09;;;28.78;30.36
64717;BME280;51146;50.274;19.000;2022-09-09T10:35:51;98317.41;;;29.01;29.41
64717;BME280;51146;50.274;19.000;2022-09-09T10:38:29;98325.41;;;28.98;28.82
64717;BME280;51146;50.274;19.000;2022-09-09T10:52:22;98330.53;;;28.18;29.38
64717;BME280;51146;50.274;19.000;2022-09-09T10:57:42;98322.28;;;29.64;28.51
64717;BME280;51146;50.274;19.000;2022-09-09T11:00:18;98319.25;;;30.67;27.29
64717;BME280;51146;50.274;19.000;2022-09-09T11:02:57;98321.53;;;31.85;25.19
64717;BME280;51146;50.274;19.000;2022-09-09T11:05:34;98322.59;;;32.92;24.70
64717;BME280;51146;50.274;19.000;2022-09-09T11:08:23;98320.38;;;33.77;24.07
64717;BME280;51146;50.274;19.000;2022-09-09T11:10:58;98313.13;;;34.33;22.67
64717;BME280;51146;50.274;19.000;2022-09-09T11:13:35;98322.66;;;34.21;20.52
64717;BME280;51146;50.274;19.000;2022-09-09T11:16:31;98318.38;;;33.57;21.63
64717;BME280;51146;50.274;19.000;2022-09-09T11:19:21;98318.66;;;32.87;21.49
64717;BME280;51146;50.274;19.000;2022-09-09T11:21:53;98322.28;;;32.45;22.26
64717;BME280;51146;50.274;19.000;2022-09-09T11:24:36;98323.31;;;32.34;22.05
64717;BME280;51146;50.274;19.000;2022-09-09T11:27:14;98328.06;;;32.01;23.14
64717;BME280;51146;50.274;19.000;2022-09-09T11:32:40;98330.72;;;32.50;22.30
64717;BME280;51146;50.274;19.000;2022-09-09T11:35:38;98321.63;;;33.23;21.40
64717;BME280;51146;50.274;19.000;2022-09-09T11:41:07;98319.22;;;32.89;21.19
64717;BME280;51146;50.274;19.000;2022-09-09T11:46:10;98330.75;;;32.56;21.33
64717;BME280;51146;50.274;19.000;2022-09-09T11:48:41;98322.75;;;32.69;21.73
64717;BME280;51146;50.274;19.000;2022-09-09T12:02:01;98306.81;;;33.33;20.09
64717;BME280;51146;50.274;19.000;2022-09-09T12:04:35;98317.81;;;32.87;20.05
64717;BME280;51146;50.274;19.000;2022-09-09T12:07:23;98321.03;;;32.21;20.74
64717;BME280;51146;50.274;19.000;2022-09-09T12:12:30;98307.78;;;31.07;22.77
64717;BME280;51146;50.274;19.000;2022-09-09T12:17:49;98306.78;;;30.69;22.96
64717;BME280;51146;50.274;19.000;2022-09-09T12:20:34;98323.63;;;30.24;23.36
64717;BME280;51146;50.274;19.000;2022-09-09T12:31:14;98326.59;;;29.71;23.91
64717;BME280;51146;50.274;19.000;2022-09-09T12:33:45;98326.47;;;30.29;23.92
64717;BME280;51146;50.274;19.000;2022-09-09T12:36:23;98323.13;;;31.05;24.17
64717;BME280;51146;50.274;19.000;2022-09-09T12:38:51;98316.75;;;31.81;22.66
64717;BME280;51146;50.274;19.000;2022-09-09T12:41:23;98320.53;;;32.34;22.10
64717;BME280;51146;50.274;19.000;2022-09-09T12:43:51;98315.78;;;32.67;21.15
64717;BME280;51146;50.274;19.000;2022-09-09T12:46:29;98321.06;;;33.21;20.82
64717;BME280;51146;50.274;19.000;2022-09-09T12:48:59;98325.69;;;33.63;21.12
64717;BME280;51146;50.274;19.000;2022-09-09T12:51:27;98315.38;;;33.90;20.35
64717;BME280;51146;50.274;19.000;2022-09-09T12:53:55;98319.28;;;33.78;20.44
64717;BME280;51146;50.274;19.000;2022-09-09T12:56:25;98310.47;;;33.34;20.09
64717;BME280;51146;50.274;19.000;2022-09-09T12:58:57;98312.50;;;32.80;21.01
64717;BME280;51146;50.274;19.000;2022-09-09T13:01:30;98316.13;;;32.43;21.09
64717;BME280;51146;50.274;19.000;2022-09-09T13:03:59;98319.44;;;32.03;22.14
64717;BME280;51146;50.274;19.000;2022-09-09T13:06:31;98315.09;;;31.58;21.84
64717;BME280;51146;50.274;19.000;2022-09-09T13:08:59;98308.41;;;31.31;21.60
64717;BME280;51146;50.274;19.000;2022-09-09T13:11:31;98300.47;;;31.01;22.03
64717;BME280;51146;50.274;19.000;2022-09-09T13:14:02;98308.19;;;30.55;22.83
64717;BME280;51146;50.274;19.000;2022-09-09T13:16:32;98311.97;;;30.27;23.11
64717;BME280;51146;50.274;19.000;2022-09-09T13:21:35;98299.78;;;29.82;23.74
64717;BME280;51146;50.274;19.000;2022-09-09T13:24:06;98294.59;;;29.57;23.83
64717;BME280;51146;50.274;19.000;2022-09-09T13:26:34;98290.75;;;29.29;24.61
64717;BME280;51146;50.274;19.000;2022-09-09T13:29:17;98301.38;;;28.92;24.69
64717;BME280;51146;50.274;19.000;2022-09-09T13:31:45;98285.22;;;28.53;25.00
64717;BME280;51146;50.274;19.000;2022-09-09T13:34:28;98293.00;;;28.28;25.46
64717;BME280;51146;50.274;19.000;2022-09-09T13:37:04;98288.22;;;27.93;25.90
64717;BME280;51146;50.274;19.000;2022-09-09T13:39:36;98282.88;;;27.68;25.76
64717;BME280;51146;50.274;19.000;2022-09-09T13:42:04;98287.13;;;27.40;26.99
64717;BME280;51146;50.274;19.000;2022-09-09T13:44:37;98281.69;;;27.03;27.28
64717;BME280;51146;50.274;19.000;2022-09-09T13:47:17;98282.59;;;26.78;27.73
64717;BME280;51146;50.274;19.000;2022-09-09T13:49:45;98279.59;;;26.61;28.08
64717;BME280;51146;50.274;19.000;2022-09-09T13:52:14;98280.06;;;26.40;27.50
64717;BME280;51146;50.274;19.000;2022-09-09T13:54:50;98270.09;;;26.14;27.90
64717;BME280;51146;50.274;19.000;2022-09-09T13:57:22;98267.56;;;25.87;28.82
64717;BME280;51146;50.274;19.000;2022-09-09T13:59:52;98268.56;;;25.67;28.74
64717;BME280;51146;50.274;19.000;2022-09-09T14:02:30;98270.19;;;25.50;28.84
64717;BME280;51146;50.274;19.000;2022-09-09T14:04:57;98268.34;;;25.37;28.80
64717;BME280;51146;50.274;19.000;2022-09-09T14:07:24;98272.00;;;25.31;29.20
64717;BME280;51146;50.274;19.000;2022-09-09T14:09:51;98253.56;;;25.25;29.48
64717;BME280;51146;50.274;19.000;2022-09-09T14:12:19;98251.50;;;25.13;29.14
64717;BME280;51146;50.274;19.000;2022-09-09T14:14:46;98257.69;;;25.02;30.04
64717;BME280;51146;50.274;19.000;2022-09-09T14:17:13;98257.50;;;24.97;30.04
64717;BME280;51146;50.274;19.000;2022-09-09T14:19:41;98254.78;;;24.90;30.24
64717;BME280;51146;50.274;19.000;2022-09-09T14:22:08;98247.84;;;24.74;30.21
64717;BME280;51146;50.274;19.000;2022-09-09T14:24:35;98253.03;;;24.58;30.31
64717;BME280;51146;50.274;19.000;2022-09-09T14:27:02;98247.69;;;24.49;30.56
64717;BME280;51146;50.274;19.000;2022-09-09T14:29:29;98253.06;;;24.44;30.54
64717;BME280;51146;50.274;19.000;2022-09-09T14:31:55;98249.44;;;24.37;30.72
64717;BME280;51146;50.274;19.000;2022-09-09T14:34:23;98253.47;;;24.41;30.94
64717;BME280;51146;50.274;19.000;2022-09-09T14:36:49;98249.41;;;24.44;31.31
64717;BME280;51146;50.274;19.000;2022-09-09T14:39:16;98252.19;;;24.44;31.54
64717;BME280;51146;50.274;19.000;2022-09-09T14:41:43;98246.28;;;24.40;31.37
64717;BME280;51146;50.274;19.000;2022-09-09T14:44:10;98254.13;;;24.37;31.73
64717;BME280;51146;50.274;19.000;2022-09-09T14:46:36;98249.47;;;24.30;31.83
64717;BME280;51146;50.274;19.000;2022-09-09T14:49:03;98242.09;;;24.18;31.84
64717;BME280;51146;50.274;19.000;2022-09-09T14:51:31;98241.28;;;24.04;31.83
64717;BME280;51146;50.274;19.000;2022-09-09T14:53:59;98243.41;;;23.95;31.92
64717;BME280;51146;50.274;19.000;2022-09-09T14:56:28;98242.97;;;23.85;32.27
64717;BME280;51146;50.274;19.000;2022-09-09T14:58:58;98238.06;;;23.80;32.61
64717;BME280;51146;50.274;19.000;2022-09-09T15:01:29;98242.31;;;23.76;31.95
64717;BME280;51146;50.274;19.000;2022-09-09T15:03:59;98243.59;;;23.67;31.92
64717;BME280;51146;50.274;19.000;2022-09-09T15:06:28;98242.97;;;23.65;32.43
64717;BME280;51146;50.274;19.000;2022-09-09T15:08:56;98245.91;;;23.63;32.58
64717;BME280;51146;50.274;19.000;2022-09-09T15:11:29;98243.41;;;23.62;32.65